Time;durP1;ratioP1;P1;durP2;ratioP2;P2;SDS_P1;SDS_P2;PMS_P1;PMS_P2;Temp;Humidity;BMP_temperature;BMP_pressure;BME280_temperature;BME280_humidity;BME280_pressure;Samples;Min_cycle;Max_cycle;Signal;HPM_P1;HPM_P2
2023/10/13 00:00:29;;;;;;;7.35;3.63;;;17.90;99.90;;;;;;5007888;28;20045;-67
2023/10/13 00:03:00;;;;;;;6.47;3.40;;;17.90;99.90;;;;;;5014517;28;20671;-69
2023/10/13 00:05:32;;;;;;;9.23;3.55;;;18.00;99.90;;;;;;5015597;28;20052;-69
2023/10/13 00:08:00;;;;;;;;;;;18.00;99.90;;;;;;5011290;28;20125;-68
2023/10/13 00:10:27;;;;;;;9.25;3.80;;;18.00;99.90;;;;;;5015206;28;20354;-68
2023/10/13 00:12:53;;;;;;;6.90;3.50;;;18.00;99.90;;;;;;5011018;28;20715;-68
2023/10/13 00:15:27;;;;;;;7.70;3.50;;;18.00;99.90;;;;;;5013084;28;22232;-68
2023/10/13 00:17:55;;;;;;;9.45;3.58;;;18.00;99.90;;;;;;5008856;28;20846;-68
2023/10/13 00:20:37;;;;;;;6.55;3.40;;;18.00;99.90;;;;;;5007709;28;20033;-68
2023/10/13 00:23:03;;;;;;;8.82;4.28;;;18.00;99.90;;;;;;4999848;28;20632;-67
2023/10/13 00:25:39;;;;;;;6.35;3.63;;;18.00;99.90;;;;;;5009402;28;20145;-67
2023/10/13 00:28:08;;;;;;;11.57;3.80;;;18.00;99.90;;;;;;5011190;28;20516;-66
2023/10/13 00:30:34;;;;;;;8.48;3.72;;;18.10;99.90;;;;;;5001927;28;20121;-66
2023/10/13 00:33:00;;;;;;;8.68;3.55;;;18.10;99.90;;;;;;5005262;28;20277;-67
2023/10/13 00:35:35;;;;;;;9.52;3.65;;;18.10;99.90;;;;;;4996630;28;20053;-67
2023/10/13 00:38:14;;;;;;;8.43;3.65;;;18.10;99.90;;;;;;4978023;28;20059;-67
2023/10/13 00:40:42;;;;;;;8.00;3.83;;;18.10;99.90;;;;;;4999816;28;20180;-66
2023/10/13 00:45:56;;;;;;;6.85;3.40;;;18.20;99.90;;;;;;5020938;28;20048;-68
2023/10/13 00:48:33;;;;;;;7.82;3.50;;;18.20;99.90;;;;;;5014365;28;20025;-68
2023/10/13 00:51:16;;;;;;;9.25;4.20;;;18.10;99.90;;;;;;5020797;28;20045;-68
2023/10/13 00:53:44;;;;;;;7.70;3.42;;;18.10;99.90;;;;;;5024779;28;20136;-67
2023/10/13 00:56:19;;;;;;;5.03;3.67;;;18.10;99.90;;;;;;5016773;28;20087;-67
2023/10/13 00:58:52;;;;;;;6.05;3.33;;;18.10;99.90;;;;;;5020663;28;20080;-66
2023/10/13 01:01:21;;;;;;;7.65;3.85;;;18.10;99.90;;;;;;5023420;28;20041;-66
2023/10/13 01:03:59;;;;;;;7.07;3.97;;;18.10;99.90;;;;;;5018113;28;20797;-66
2023/10/13 01:06:26;;;;;;;7.60;3.67;;;18.10;99.90;;;;;;5016840;28;20053;-66
2023/10/13 01:09:18;;;;;;;8.68;4.05;;;18.20;99.90;;;;;;5010723;28;20067;-67
2023/10/13 01:11:52;;;;;;;4.95;4.10;;;18.10;99.90;;;;;;5019360;28;20545;-67
2023/10/13 01:14:20;;;;;;;7.78;4.00;;;18.10;99.90;;;;;;5022560;28;20094;-67
2023/10/13 01:16:47;;;;;;;7.82;4.15;;;18.10;99.90;;;;;;5013928;28;21558;-68
2023/10/13 01:19:16;;;;;;;9.25;4.22;;;18.00;99.90;;;;;;5006233;28;20041;-68
2023/10/13 01:21:44;;;;;;;6.55;3.90;;;18.00;99.90;;;;;;5022553;28;20458;-67
2023/10/13 01:24:13;;;;;;;10.20;4.32;;;18.00;99.90;;;;;;5026400;28;20137;-67
2023/10/13 01:26:40;;;;;;;6.13;3.35;;;18.10;99.90;;;;;;5028949;28;20032;-70
2023/10/13 01:29:13;;;;;;;7.95;4.43;;;17.90;99.90;;;;;;5028228;28;20052;-66
2023/10/13 01:31:46;;;;;;;7.40;4.05;;;17.80;99.90;;;;;;5025966;28;20036;-66
2023/10/13 01:34:21;;;;;;;13.27;4.10;;;17.60;99.90;;;;;;5030075;28;20065;-68
2023/10/13 01:36:52;;;;;;;8.27;4.32;;;17.50;99.90;;;;;;5026252;28;20128;-68
2023/10/13 01:39:20;;;;;;;7.78;3.85;;;17.50;99.90;;;;;;5013216;28;20433;-68
2023/10/13 01:41:46;;;;;;;6.50;3.88;;;17.40;99.90;;;;;;5020271;28;20052;-68
2023/10/13 01:44:11;;;;;;;5.55;3.72;;;17.30;99.90;;;;;;5010074;28;20029;-69
2023/10/13 01:46:38;;;;;;;7.65;4.30;;;17.30;99.90;;;;;;5011546;28;20041;-69
2023/10/13 01:49:03;;;;;;;6.53;4.13;;;17.30;99.90;;;;;;5013584;28;20593;-68
2023/10/13 01:51:29;;;;;;;7.65;4.28;;;17.30;99.90;;;;;;5008484;28;20060;-66
2023/10/13 01:53:58;;;;;;;13.43;4.68;;;17.30;99.90;;;;;;5004965;28;20124;-66
2023/10/13 01:56:24;;;;;;;7.60;4.35;;;17.40;99.90;;;;;;5011842;28;20049;-66
2023/10/13 01:58:51;;;;;;;6.47;4.28;;;17.30;99.90;;;;;;5008155;28;20148;-65
2023/10/13 02:01:26;;;;;;;5.47;3.88;;;17.20;99.90;;;;;;5003452;28;20410;-66
2023/10/13 02:04:04;;;;;;;7.15;4.85;;;17.10;99.90;;;;;;5008083;28;20051;-65
2023/10/13 02:06:36;;;;;;;7.38;4.65;;;17.10;99.90;;;;;;5009497;28;20128;-66
2023/10/13 02:11:41;;;;;;;8.02;4.20;;;17.10;99.90;;;;;;5006253;28;20044;-68
2023/10/13 02:14:11;;;;;;;7.10;4.07;;;17.10;99.90;;;;;;5007336;28;20033;-68
2023/10/13 02:16:40;;;;;;;9.05;4.43;;;17.10;99.90;;;;;;4997610;28;21266;-68
2023/10/13 02:19:08;;;;;;;8.43;4.07;;;17.10;99.90;;;;;;5009994;28;20029;-68
2023/10/13 02:21:39;;;;;;;8.43;4.30;;;17.10;99.90;;;;;;5007065;28;20037;-68
2023/10/13 02:24:12;;;;;;;7.13;4.00;;;17.10;99.90;;;;;;5004590;28;20052;-68
2023/10/13 02:26:39;;;;;;;8.50;4.80;;;17.10;99.90;;;;;;5005051;28;20040;-67
2023/10/13 02:29:08;;;;;;;8.63;4.30;;;17.00;99.90;;;;;;5004247;28;20498;-65
2023/10/13 02:31:37;;;;;;;8.32;3.90;;;17.00;99.90;;;;;;5004892;28;20113;-66
2023/10/13 02:34:11;;;;;;;6.80;4.05;;;16.90;99.90;;;;;;4985736;28;20099;-65
2023/10/13 02:36:48;;;;;;;8.95;4.57;;;16.90;99.90;;;;;;4998812;28;20048;-66
2023/10/13 02:39:24;;;;;;;5.47;3.88;;;16.90;99.90;;;;;;5007115;28;21337;-66
2023/10/13 02:41:50;;;;;;;7.60;4.35;;;16.90;99.90;;;;;;4992972;28;20046;-66
2023/10/13 02:44:36;;;;;;;6.72;4.07;;;17.00;99.90;;;;;;5016368;28;20041;-66
2023/10/13 02:47:14;;;;;;;9.40;4.38;;;17.00;99.90;;;;;;5024829;28;20037;-66
2023/10/13 02:49:43;;;;;;;9.23;3.95;;;17.10;99.90;;;;;;5022226;28;20507;-65
2023/10/13 02:52:09;;;;;;;6.80;4.13;;;17.20;99.90;;;;;;5022941;28;20049;-65
2023/10/13 02:54:50;;;;;;;6.65;3.88;;;17.20;99.90;;;;;;5032726;28;20037;-65
2023/10/13 02:57:17;;;;;;;8.13;4.18;;;17.30;99.90;;;;;;5030346;28;20055;-65
2023/10/13 02:59:47;;;;;;;5.82;3.30;;;17.30;99.90;;;;;;5012311;28;20102;-66
2023/10/13 03:02:17;;;;;;;8.98;4.18;;;17.30;99.90;;;;;;5014321;28;20041;-67
2023/10/13 03:04:59;;;;;;;8.23;4.35;;;17.40;99.90;;;;;;5019517;28;20736;-69
2023/10/13 03:07:28;;;;;;;6.25;3.90;;;17.40;99.90;;;;;;5020129;28;20040;-67
2023/10/13 03:09:57;;;;;;;5.75;3.90;;;17.40;99.90;;;;;;5028977;28;20033;-67
2023/10/13 03:12:33;;;;;;;8.73;4.03;;;17.40;99.90;;;;;;5027934;28;20044;-67
2023/10/13 03:17:40;;;;;;;9.68;4.45;;;17.50;99.90;;;;;;5020134;28;20076;-67
2023/10/13 03:20:11;;;;;;;7.75;4.20;;;17.60;99.90;;;;;;5030169;28;20982;-67
2023/10/13 03:22:36;;;;;;;7.53;4.43;;;17.50;99.90;;;;;;5026544;28;20112;-67
2023/10/13 03:25:07;;;;;;;8.57;4.53;;;17.60;99.90;;;;;;5015186;28;20045;-67
2023/10/13 03:28:07;;;;;;;6.15;4.70;;;17.60;99.90;;;;;;5023163;28;20040;-67
2023/10/13 03:31:01;;;;;;;7.83;4.53;;;17.60;99.90;;;;;;5008428;28;20209;-67
2023/10/13 03:33:25;;;;;;;7.05;3.72;;;17.60;99.90;;;;;;5022970;28;20037;-66
2023/10/13 03:35:54;;;;;;;5.63;3.85;;;17.50;99.90;;;;;;5027402;28;20107;-67
2023/10/13 03:38:20;;;;;;;7.05;4.28;;;17.50;99.90;;;;;;5030251;28;20048;-66
2023/10/13 03:41:07;;;;;;;8.77;4.30;;;17.40;99.90;;;;;;5015551;28;20033;-69
2023/10/13 03:43:44;;;;;;;10.07;4.57;;;17.40;99.90;;;;;;5018406;28;20049;-69
2023/10/13 03:46:10;;;;;;;7.63;4.65;;;17.40;99.90;;;;;;5020689;28;21983;-69
2023/10/13 03:48:52;;;;;;;8.30;4.47;;;17.40;99.90;;;;;;5031793;28;20095;-68
2023/10/13 03:51:18;;;;;;;9.38;4.32;;;17.40;99.90;;;;;;5015434;28;20902;-69
2023/10/13 03:53:52;;;;;;;6.90;4.32;;;17.30;99.90;;;;;;5012579;28;20037;-69
2023/10/13 03:56:26;;;;;;;7.00;4.82;;;17.30;99.90;;;;;;5025438;28;20055;-69
2023/10/13 04:04:14;;;;;;;8.83;4.80;;;17.20;99.90;;;;;;5024944;28;20034;-69
2023/10/13 04:17:28;;;;;;;8.80;4.50;;;17.00;99.90;;;;;;5018196;28;20056;-66
2023/10/13 04:20:27;;;;;;;;;;;16.90;99.90;;;;;;5018283;28;20187;-70
2023/10/13 04:25:51;;;;;;;9.02;4.70;;;16.90;99.90;;;;;;5024479;28;20127;-69
2023/10/13 04:36:21;;;;;;;6.00;4.75;;;16.90;99.90;;;;;;5030994;28;20037;-67
2023/10/13 04:38:59;;;;;;;12.68;5.13;;;16.80;99.90;;;;;;5019353;28;20037;-67
2023/10/13 04:41:42;;;;;;;9.15;4.88;;;16.80;99.90;;;;;;5027662;28;20040;-67
2023/10/13 06:29:58;;;;;;;8.65;5.50;;;16.80;99.90;;;;;;5012597;28;20086;-66
2023/10/13 06:32:26;;;;;;;9.05;5.57;;;16.90;99.90;;;;;;5011377;28;20482;-66
2023/10/13 06:35:04;;;;;;;10.90;5.38;;;16.90;99.90;;;;;;5013861;28;20683;-67
2023/10/13 06:37:30;;;;;;;10.35;5.13;;;16.90;99.90;;;;;;5013364;28;20049;-67
2023/10/13 06:40:07;;;;;;;7.63;5.00;;;16.90;99.90;;;;;;5016284;28;20021;-67
2023/10/13 06:42:42;;;;;;;8.23;5.30;;;17.00;99.90;;;;;;5012447;28;20133;-66
2023/10/13 06:45:09;;;;;;;8.90;4.82;;;17.00;99.90;;;;;;5035653;28;20037;-70
2023/10/13 06:47:43;;;;;;;5.65;4.10;;;17.00;99.90;;;;;;5027095;28;20029;-70
2023/10/13 06:50:15;;;;;;;7.93;4.55;;;17.10;99.90;;;;;;5014010;28;20056;-70
2023/10/13 06:52:42;;;;;;;5.00;4.22;;;17.10;99.90;;;;;;5017816;28;20997;-70
2023/10/13 06:55:17;;;;;;;7.13;4.55;;;17.10;99.90;;;;;;5033920;28;20036;-70
2023/10/13 06:57:46;;;;;;;7.68;4.45;;;17.10;99.90;;;;;;5035791;28;20049;-70
2023/10/13 07:03:05;;;;;;;5.78;4.95;;;17.10;99.90;;;;;;5023288;28;20588;-70
2023/10/13 07:05:43;;;;;;;9.10;4.22;;;17.10;99.90;;;;;;5016234;28;20044;-70
2023/10/13 07:08:09;;;;;;;8.93;5.45;;;17.20;99.90;;;;;;5026709;28;20037;-70
2023/10/13 07:10:48;;;;;;;8.57;4.72;;;17.20;99.90;;;;;;5017386;28;20061;-70
2023/10/13 07:13:14;;;;;;;7.57;4.82;;;17.30;99.90;;;;;;5011509;28;20042;-70
2023/10/13 07:15:49;;;;;;;7.65;4.50;;;17.30;99.90;;;;;;5035475;28;21831;-70
2023/10/13 07:18:22;;;;;;;14.10;4.88;;;17.30;99.90;;;;;;5021526;28;20119;-70
2023/10/13 07:20:48;;;;;;;9.60;5.18;;;17.40;99.90;;;;;;5031668;28;20045;-70
2023/10/13 07:23:17;;;;;;;7.25;4.55;;;17.50;99.90;;;;;;5026866;28;20466;-68
2023/10/13 07:25:55;;;;;;;6.53;5.00;;;17.50;99.90;;;;;;5032167;28;20041;-65
2023/10/13 07:28:22;;;;;;;6.82;5.68;;;17.60;99.90;;;;;;5020002;28;20553;-66
2023/10/13 07:33:21;;;;;;;7.75;5.15;;;17.60;99.90;;;;;;5029076;28;20078;-67
2023/10/13 07:35:51;;;;;;;8.30;5.03;;;17.70;99.90;;;;;;5020434;28;20077;-68
2023/10/13 07:38:21;;;;;;;7.35;4.95;;;17.70;99.90;;;;;;5002544;28;20139;-68
2023/10/13 07:40:52;;;;;;;8.07;4.80;;;17.70;99.90;;;;;;5016101;28;20044;-66
2023/10/13 07:43:21;;;;;;;6.45;5.13;;;17.80;99.90;;;;;;5007078;28;20088;-70
2023/10/13 07:45:51;;;;;;;7.65;4.97;;;17.90;99.90;;;;;;4989773;28;20041;-69
2023/10/13 07:48:20;;;;;;;8.55;4.55;;;17.90;99.90;;;;;;5014688;28;20034;-69
2023/10/13 07:50:48;;;;;;;8.13;5.15;;;18.00;99.90;;;;;;5016346;28;20048;-70
2023/10/13 07:53:23;;;;;;;8.10;4.93;;;18.10;99.90;;;;;;4993964;28;20562;-70
2023/10/13 07:55:57;;;;;;;9.50;5.03;;;18.10;99.90;;;;;;5015367;28;20053;-70
2023/10/13 07:58:26;;;;;;;7.07;4.60;;;18.20;99.90;;;;;;4998664;28;20426;-70
2023/10/13 08:08:40;;;;;;;8.43;4.68;;;18.50;99.90;;;;;;5011716;28;20029;-67
2023/10/13 08:16:54;;;;;;;8.20;4.88;;;18.60;99.90;;;;;;4971490;28;20070;-67
2023/10/13 08:19:28;;;;;;;8.07;5.43;;;18.60;99.90;;;;;;4978266;28;20031;-66
2023/10/13 08:21:59;;;;;;;8.27;5.45;;;18.70;99.90;;;;;;4966143;28;20042;-67
2023/10/13 08:48:07;;;;;;;12.63;5.75;;;19.60;99.90;;;;;;4968864;28;20034;-70
2023/10/13 08:56:14;;;;;;;12.65;6.25;;;20.10;99.90;;;;;;5013543;28;20049;-70
2023/10/13 09:09:42;;;;;;;10.55;5.15;;;21.10;99.90;;;;;;5006241;28;20549;-69
2023/10/13 09:12:14;;;;;;;14.35;5.80;;;21.40;99.90;;;;;;5012437;28;20037;-67
2023/10/13 09:14:44;;;;;;;10.45;5.55;;;21.60;99.90;;;;;;5018016;28;20524;-67
2023/10/13 09:18:12;;;;;;;9.43;5.55;;;21.70;99.90;;;;;;5017270;28;20033;-67
2023/10/13 09:19:58;;;;;;;12.05;5.03;;;21.80;99.90;;;;;;4996092;28;20042;-67
2023/10/13 09:22:38;;;;;;;8.25;5.20;;;21.90;99.90;;;;;;5006155;28;20037;-67
2023/10/13 09:25:13;;;;;;;9.50;4.53;;;22.00;99.90;;;;;;5012385;28;20125;-67
2023/10/13 09:27:39;;;;;;;13.30;5.70;;;22.20;99.90;;;;;;5001775;28;20038;-68
2023/10/13 09:30:09;;;;;;;9.40;5.28;;;22.40;99.90;;;;;;5001299;28;20044;-66
2023/10/13 09:32:48;;;;;;;12.55;5.05;;;22.50;99.90;;;;;;5009151;28;20033;-66
2023/10/13 09:35:22;;;;;;;10.52;4.57;;;22.70;99.90;;;;;;5020617;28;20040;-66
2023/10/13 09:37:50;;;;;;;8.63;3.85;;;22.90;99.90;;;;;;4997390;28;20495;-66
2023/10/13 09:43:04;;;;;;;;;;;23.30;99.90;;;;;;5018712;28;20060;-66
2023/10/13 09:45:43;;;;;;;10.65;3.90;;;23.40;99.90;;;;;;5017830;28;19913;-66
2023/10/13 09:48:21;;;;;;;8.10;3.88;;;23.60;99.90;;;;;;5007540;28;20041;-66
2023/10/13 09:50:48;;;;;;;7.57;4.22;;;23.70;99.90;;;;;;5007091;28;20040;-69
2023/10/13 09:53:17;;;;;;;5.85;3.92;;;23.80;99.90;;;;;;5016460;28;20075;-69
2023/10/13 09:56:00;;;;;;;8.15;3.40;;;23.90;99.90;;;;;;5018716;28;20388;-69
2023/10/13 09:58:36;;;;;;;4.70;3.28;;;24.00;99.90;;;;;;5018469;28;20046;-69
2023/10/13 10:01:09;;;;;;;9.00;4.05;;;24.10;99.90;;;;;;5017856;28;20124;-69
2023/10/13 10:04:35;;;;;;;11.10;3.83;;;24.20;99.90;;;;;;5013060;28;20030;-69
2023/10/13 10:06:44;;;;;;;7.38;3.80;;;24.30;99.90;;;;;;5003478;28;20054;-70
2023/10/13 10:09:14;;;;;;;9.20;3.75;;;24.30;99.90;;;;;;5018625;28;20048;-69
2023/10/13 10:11:51;;;;;;;15.93;3.90;;;24.40;99.90;;;;;;5018490;28;21804;-69
2023/10/13 10:14:48;;;;;;;8.15;3.42;;;24.40;99.90;;;;;;5012985;28;20048;-69
2023/10/13 10:17:14;;;;;;;7.38;3.75;;;24.50;99.90;;;;;;4972929;28;20254;-70
2023/10/13 10:19:57;;;;;;;8.52;3.40;;;24.70;99.90;;;;;;5014998;28;20040;-70
2023/10/13 10:22:36;;;;;;;6.80;3.15;;;24.70;99.90;;;;;;5017270;28;20038;-70
2023/10/13 10:25:25;;;;;;;9.07;3.65;;;24.90;99.90;;;;;;5018357;28;20064;-70
2023/10/13 10:27:58;;;;;;;7.43;3.33;;;25.00;99.90;;;;;;5013668;28;20029;-67
2023/10/13 10:30:28;;;;;;;5.55;3.20;;;25.00;99.90;;;;;;5015872;28;20034;-67
2023/10/13 10:33:01;;;;;;;6.35;3.47;;;25.00;99.90;;;;;;5015983;28;20034;-66
2023/10/13 10:35:32;;;;;;;7.93;3.50;;;25.10;99.90;;;;;;5018894;28;20576;-66
2023/10/13 10:38:24;;;;;;;6.97;3.60;;;25.10;99.90;;;;;;5012237;28;20038;-66
2023/10/13 10:41:04;;;;;;;6.32;3.28;;;25.10;99.90;;;;;;5015987;28;20736;-66
2023/10/13 10:43:42;;;;;;;5.05;3.08;;;25.30;99.90;;;;;;5027776;28;20454;-67
2023/10/13 10:46:25;;;;;;;7.15;3.22;;;25.30;99.90;;;;;;5021918;28;20041;-66
2023/10/13 10:48:56;;;;;;;8.27;3.28;;;25.30;99.90;;;;;;5018469;28;20591;-66
2023/10/13 10:51:22;;;;;;;5.13;3.45;;;25.40;99.90;;;;;;5035959;28;20040;-66
2023/10/13 10:53:56;;;;;;;5.88;3.17;;;25.50;99.90;;;;;;5028885;28;20044;-66
2023/10/13 10:56:36;;;;;;;9.80;3.70;;;25.60;99.90;;;;;;5035658;28;20780;-67
2023/10/13 10:59:04;;;;;;;7.70;3.30;;;25.60;99.90;;;;;;5031506;28;20040;-66
2023/10/13 11:01:38;;;;;;;8.95;3.70;;;25.60;99.90;;;;;;5038287;28;20128;-66
2023/10/13 11:04:14;;;;;;;5.53;3.00;;;25.60;99.90;;;;;;5030926;28;20041;-66
2023/10/13 11:06:55;;;;;;;5.15;3.30;;;25.70;99.90;;;;;;5021174;28;20052;-66
2023/10/13 11:12:16;;;;;;;4.32;2.67;;;25.60;99.90;;;;;;5016824;28;20033;-66
2023/10/13 11:14:47;;;;;;;6.22;2.95;;;25.50;99.90;;;;;;5032419;28;20056;-66
2023/10/13 11:17:26;;;;;;;5.05;2.80;;;25.50;99.90;;;;;;5033698;28;20045;-66
2023/10/13 11:19:52;;;;;;;7.65;3.20;;;25.50;99.90;;;;;;5035984;28;20415;-66
2023/10/13 11:22:32;;;;;;;7.78;3.20;;;25.40;99.90;;;;;;5034906;28;20047;-69
2023/10/13 11:25:11;;;;;;;6.55;3.00;;;25.30;99.90;;;;;;5005983;28;20033;-69
2023/10/13 11:30:20;;;;;;;18.83;3.78;;;25.30;99.90;;;;;;5021662;28;20041;-70
2023/10/13 11:33:07;;;;;;;6.32;3.65;;;25.30;99.90;;;;;;5034088;28;20029;-69
2023/10/13 11:35:49;;;;;;;6.32;3.22;;;25.30;99.90;;;;;;5016057;28;20274;-70
2023/10/13 11:38:27;;;;;;;8.98;3.70;;;25.30;99.90;;;;;;5022823;28;20487;-70
2023/10/13 11:48:41;;;;;;;6.28;3.60;;;25.10;99.90;;;;;;5026581;28;20088;-64
2023/10/13 11:51:23;;;;;;;9.27;3.63;;;25.00;99.90;;;;;;5025991;28;20052;-65
2023/10/13 11:53:51;;;;;;;4.97;3.20;;;24.90;99.90;;;;;;5020479;28;20049;-64
2023/10/13 11:56:21;;;;;;;8.80;3.60;;;24.90;99.90;;;;;;5008765;28;20505;-64
2023/10/13 11:58:48;;;;;;;7.40;3.05;;;24.90;99.90;;;;;;5017758;28;20102;-72
2023/10/13 12:11:42;;;;;;;8.20;3.20;;;24.70;99.90;;;;;;5028479;28;20666;-64
2023/10/13 12:14:52;;;;;;;4.18;2.85;;;24.70;99.90;;;;;;5029786;28;20033;-63
2023/10/13 12:17:03;;;;;;;12.52;3.38;;;24.70;99.90;;;;;;5014643;28;20060;-71
2023/10/13 12:19:29;;;;;;;;;;;24.60;99.90;;;;;;5023632;28;25419;-63
2023/10/13 12:21:56;;;;;;;8.15;3.20;;;24.70;99.90;;;;;;5025243;28;20050;-63
2023/10/13 12:24:30;;;;;;;7.00;3.15;;;24.70;99.90;;;;;;5018028;28;20021;-64
2023/10/13 12:26:57;;;;;;;4.07;2.90;;;24.80;99.90;;;;;;5025237;28;20118;-64
2023/10/13 12:29:28;;;;;;;8.52;3.05;;;24.90;99.90;;;;;;5029085;28;20037;-64
2023/10/13 12:32:11;;;;;;;7.53;3.00;;;25.00;99.90;;;;;;5029674;28;20395;-64
2023/10/13 12:53:51;;;;;;;3.47;2.15;;;25.40;99.90;;;;;;4962145;28;20971;-64
2023/10/13 12:56:25;;;;;;;6.90;2.22;;;25.50;99.90;;;;;;4949424;28;21204;-72
2023/10/13 12:58:52;;;;;;;7.80;3.20;;;25.70;99.90;;;;;;4959669;28;20038;-73
2023/10/13 13:01:25;;;;;;;5.47;3.08;;;25.90;99.90;;;;;;4965302;28;20046;-72
2023/10/13 13:03:58;;;;;;;6.18;3.10;;;26.10;99.90;;;;;;4964948;28;21486;-73
2023/10/13 13:06:25;;;;;;;6.05;3.20;;;26.30;99.90;;;;;;4966145;28;20348;-72
2023/10/13 13:08:55;;;;;;;6.82;2.97;;;26.50;99.90;;;;;;5008666;28;20033;-71
2023/10/13 13:11:21;;;;;;;5.38;2.70;;;26.60;99.90;;;;;;5021186;28;20033;-73
2023/10/13 13:13:48;;;;;;;7.82;3.20;;;26.80;99.80;;;;;;5022167;28;21279;-73
2023/10/13 13:16:14;;;;;;;6.22;3.05;;;26.90;99.40;;;;;;5027183;28;20091;-74
2023/10/13 13:18:39;;;;;;;4.88;2.67;;;27.00;98.30;;;;;;5033399;28;20087;-72
2023/10/13 13:21:12;;;;;;;5.00;2.72;;;27.00;98.60;;;;;;5029640;28;20119;-70
2023/10/13 13:23:39;;;;;;;5.47;2.67;;;26.90;98.50;;;;;;5008186;28;20033;-70
2023/10/13 13:26:15;;;;;;;11.45;3.00;;;27.00;98.50;;;;;;5021124;28;20055;-69
2023/10/13 13:28:50;;;;;;;6.45;2.58;;;27.30;98.60;;;;;;5015932;28;20117;-73
2023/10/13 13:31:25;;;;;;;4.00;1.90;;;27.40;96.70;;;;;;5013886;28;20032;-73
2023/10/13 13:33:51;;;;;;;6.60;2.10;;;27.40;95.10;;;;;;5018852;28;20455;-74
2023/10/13 13:36:17;;;;;;;5.72;2.20;;;27.40;93.80;;;;;;5027400;28;20061;-73
2023/10/13 13:38:46;;;;;;;6.95;2.33;;;27.40;93.10;;;;;;5019208;28;20177;-71
2023/10/13 13:41:18;;;;;;;4.13;2.30;;;27.30;92.30;;;;;;5006920;28;20044;-72
2023/10/13 13:43:54;;;;;;;6.10;2.17;;;27.40;92.80;;;;;;5004157;28;20041;-70
2023/10/13 13:46:24;;;;;;;6.80;2.78;;;27.50;92.30;;;;;;5001418;28;20045;-71
2023/10/13 13:48:57;;;;;;;6.50;2.45;;;27.40;92.40;;;;;;4993274;28;20034;-64
2023/10/13 13:51:27;;;;;;;8.20;2.00;;;27.60;91.90;;;;;;4990980;28;20513;-65
2023/10/13 13:53:54;;;;;;;4.18;2.38;;;27.70;91.70;;;;;;5006391;28;20033;-64
2023/10/13 13:56:20;;;;;;;4.85;2.95;;;27.60;91.40;;;;;;5008531;28;20068;-64
2023/10/13 13:58:46;;;;;;;6.15;2.60;;;27.40;91.60;;;;;;5006687;28;20470;-64
2023/10/13 14:01:13;;;;;;;6.63;2.92;;;27.30;92.50;;;;;;4999375;28;20068;-64
2023/10/13 14:03:45;;;;;;;6.57;3.03;;;27.10;94.10;;;;;;4998136;28;21341;-64
2023/10/13 14:06:23;;;;;;;8.52;3.20;;;27.00;94.90;;;;;;5007567;28;20469;-72
2023/10/13 14:08:51;;;;;;;7.72;3.95;;;26.80;95.50;;;;;;5007245;28;20379;-71
2023/10/13 14:12:25;;;;;;;4.60;3.33;;;26.80;96.10;;;;;;5006838;28;20147;-71
2023/10/13 14:16:51;;;;;;;7.97;3.00;;;26.90;95.80;;;;;;4989868;28;20053;-70
2023/10/13 14:19:29;;;;;;;11.63;3.25;;;27.10;95.40;;;;;;5006035;28;20044;-70
2023/10/13 14:21:58;;;;;;;8.55;3.33;;;27.50;95.20;;;;;;4994421;28;20045;-70
2023/10/13 14:24:28;;;;;;;5.72;3.38;;;28.20;94.40;;;;;;5004977;28;20048;-70
2023/10/13 14:27:08;;;;;;;7.68;3.83;;;29.50;93.50;;;;;;5007532;28;20027;-71
2023/10/13 14:29:40;;;;;;;8.40;4.18;;;30.90;91.10;;;;;;5004312;28;20053;-69
2023/10/13 14:32:07;;;;;;;12.40;3.22;;;32.00;88.10;;;;;;4987456;28;20133;-71
2023/10/13 14:34:35;;;;;;;6.07;3.17;;;32.60;85.20;;;;;;4977840;28;20962;-71
2023/10/13 14:37:00;;;;;;;6.15;3.47;;;33.30;82.00;;;;;;4998372;28;20132;-70
2023/10/13 14:39:29;;;;;;;13.18;3.10;;;33.90;79.20;;;;;;4983192;28;20156;-71
2023/10/13 14:41:55;;;;;;;8.93;3.25;;;34.20;77.10;;;;;;5005406;28;20057;-71
2023/10/13 14:44:26;;;;;;;8.90;3.28;;;34.50;75.40;;;;;;5002705;28;20736;-71
2023/10/13 14:46:54;;;;;;;8.55;3.88;;;34.60;73.60;;;;;;4990797;28;20064;-71
2023/10/13 14:49:20;;;;;;;5.88;3.78;;;34.60;72.00;;;;;;5012312;28;20025;-71
2023/10/13 14:51:46;;;;;;;10.13;3.42;;;34.70;70.20;;;;;;5003704;28;20045;-71
2023/10/13 14:54:14;;;;;;;6.13;3.17;;;34.40;70.20;;;;;;4997431;28;20042;-69
2023/10/13 14:56:42;;;;;;;9.25;3.15;;;34.10;70.40;;;;;;5001346;28;20045;-69
2023/10/13 14:59:14;;;;;;;6.93;2.70;;;33.70;70.30;;;;;;5007143;28;20454;-69
2023/10/13 15:01:40;;;;;;;5.68;3.10;;;33.50;69.00;;;;;;4990068;28;20045;-70
2023/10/13 15:04:06;;;;;;;4.53;2.97;;;33.40;69.40;;;;;;5005863;28;20034;-69
2023/10/13 15:06:32;;;;;;;6.85;3.20;;;33.10;69.60;;;;;;5003934;28;20042;-69
2023/10/13 15:08:59;;;;;;;7.28;3.67;;;32.90;70.40;;;;;;4991460;28;20999;-70
2023/10/13 15:11:27;;;;;;;7.35;3.10;;;32.80;70.80;;;;;;5002556;28;20037;-70
2023/10/13 15:13:56;;;;;;;5.75;3.45;;;32.60;70.50;;;;;;5001703;28;20569;-70
2023/10/13 15:16:26;;;;;;;8.07;4.60;;;32.40;70.40;;;;;;5001677;28;20063;-70
2023/10/13 15:18:53;;;;;;;4.63;3.70;;;32.20;70.80;;;;;;5006050;28;20048;-70
2023/10/13 15:21:19;;;;;;;6.35;3.65;;;31.90;71.80;;;;;;5005869;28;20068;-67
2023/10/13 15:23:45;;;;;;;7.13;3.70;;;31.40;73.30;;;;;;5013127;28;20120;-67
2023/10/13 15:26:13;;;;;;;6.07;3.33;;;31.10;74.50;;;;;;5010237;28;20418;-68
2023/10/13 15:28:48;;;;;;;7.07;3.83;;;30.50;76.40;;;;;;5003379;28;20067;-67
2023/10/13 15:31:37;;;;;;;8.68;4.40;;;29.70;79.00;;;;;;5004486;28;20042;-67
2023/10/13 15:34:12;;;;;;;6.93;3.72;;;28.80;82.20;;;;;;5009343;28;20085;-67
2023/10/13 15:36:43;;;;;;;11.48;4.38;;;27.80;85.00;;;;;;5006211;28;20049;-67
2023/10/13 15:39:15;;;;;;;11.18;4.28;;;27.10;87.60;;;;;;5008958;28;20046;-67
2023/10/13 15:41:41;;;;;;;8.00;3.67;;;26.60;89.70;;;;;;5007284;28;20161;-67
2023/10/13 15:44:12;;;;;;;7.43;3.63;;;26.10;90.40;;;;;;5008485;28;20075;-66
2023/10/13 15:46:39;;;;;;;6.97;3.70;;;25.60;91.50;;;;;;5009786;28;20037;-66
2023/10/13 15:49:08;;;;;;;8.85;3.63;;;25.20;92.40;;;;;;5009658;28;20036;-66
2023/10/13 15:51:36;;;;;;;8.77;4.50;;;24.90;93.50;;;;;;4999241;28;20044;-66
2023/10/13 15:54:03;;;;;;;7.45;3.38;;;24.50;94.40;;;;;;5009268;28;20295;-66
2023/10/13 15:56:32;;;;;;;7.30;4.70;;;24.20;95.10;;;;;;5004233;28;20053;-66
2023/10/13 15:59:01;;;;;;;9.88;4.00;;;23.90;95.70;;;;;;5005506;28;20042;-72
2023/10/13 16:01:28;;;;;;;6.65;4.10;;;23.70;96.60;;;;;;5008263;28;20045;-74
2023/10/13 16:03:54;;;;;;;40.95;6.47;;;23.40;97.80;;;;;;4990613;28;20585;-73
2023/10/13 16:06:25;;;;;;;5.00;3.92;;;23.10;99.00;;;;;;5005642;28;20150;-75
2023/10/13 16:08:51;;;;;;;11.48;4.05;;;22.80;99.90;;;;;;5014690;28;20562;-69
2023/10/13 16:11:17;;;;;;;12.10;3.97;;;22.60;99.90;;;;;;5012630;28;20041;-69
2023/10/13 16:13:51;;;;;;;17.65;4.82;;;22.40;99.90;;;;;;5010649;28;20120;-70
2023/10/13 16:16:24;;;;;;;9.70;4.63;;;22.20;99.90;;;;;;5010228;28;20566;-68
2023/10/13 16:18:53;;;;;;;10.70;4.82;;;22.10;99.90;;;;;;5008462;28;20068;-68
2023/10/13 16:21:19;;;;;;;9.98;4.78;;;22.00;99.90;;;;;;5003421;28;20032;-67
2023/10/13 16:23:50;;;;;;;11.40;5.22;;;21.80;99.90;;;;;;5010691;28;20088;-67
2023/10/13 16:26:22;;;;;;;10.27;4.65;;;21.70;99.90;;;;;;5017784;28;20122;-66
2023/10/13 16:28:53;;;;;;;7.95;5.43;;;21.50;99.90;;;;;;5009430;28;20084;-66
2023/10/13 16:31:22;;;;;;;7.80;5.03;;;21.40;99.90;;;;;;5018241;28;20042;-66
2023/10/13 16:33:48;;;;;;;8.35;4.78;;;21.30;99.90;;;;;;5007905;28;20038;-66
2023/10/13 16:36:13;;;;;;;15.30;6.10;;;21.10;99.90;;;;;;5013759;28;20536;-66
2023/10/13 16:38:39;;;;;;;9.57;5.82;;;21.10;99.90;;;;;;5010737;28;20071;-66
2023/10/13 16:41:12;;;;;;;14.48;6.85;;;20.90;99.90;;;;;;5013650;28;20482;-66
2023/10/13 16:43:39;;;;;;;8.80;6.38;;;20.70;99.90;;;;;;5023026;28;20057;-66
2023/10/13 16:46:11;;;;;;;10.50;6.70;;;20.60;99.90;;;;;;5024158;28;20044;-66
2023/10/13 16:48:37;;;;;;;13.20;6.85;;;20.50;99.90;;;;;;5027631;28;20025;-66
2023/10/13 16:51:05;;;;;;;10.70;6.53;;;20.40;99.90;;;;;;5027462;28;20505;-66
2023/10/13 16:53:32;;;;;;;12.98;6.20;;;20.20;99.90;;;;;;5034649;28;20060;-66
2023/10/13 16:56:00;;;;;;;8.20;5.35;;;20.00;99.90;;;;;;5032965;28;20041;-66
2023/10/13 16:58:27;;;;;;;11.43;5.80;;;19.90;99.90;;;;;;5031875;28;20552;-66
2023/10/13 17:00:53;;;;;;;11.70;5.35;;;19.80;99.90;;;;;;5023848;28;20045;-66
2023/10/13 17:03:31;;;;;;;13.70;5.53;;;19.70;99.90;;;;;;5032508;28;20465;-66
2023/10/13 17:06:01;;;;;;;12.18;5.65;;;19.60;99.90;;;;;;5030150;28;20543;-66
2023/10/13 17:08:30;;;;;;;13.25;6.07;;;19.40;99.90;;;;;;5032861;28;20574;-66
2023/10/13 17:11:06;;;;;;;12.90;6.40;;;19.20;99.90;;;;;;5026330;28;20036;-67
2023/10/13 17:13:33;;;;;;;8.18;5.47;;;19.20;99.90;;;;;;5037671;28;20060;-67
2023/10/13 17:15:59;;;;;;;9.35;5.50;;;19.10;99.90;;;;;;5021172;28;20037;-67